createdAt,value
2022-09-23T00:00:14.363Z,8.57
2022-09-23T00:00:36.883Z,8.57
2022-09-23T00:01:03.370Z,8.18
2022-09-23T00:01:25.181Z,9.93
2022-09-23T00:01:46.996Z,9.88
2022-09-23T00:02:10.834Z,9.75
2022-09-23T00:02:32.628Z,8.98
2022-09-23T00:02:54.563Z,9.32
2022-09-23T00:03:18.310Z,9.30
2022-09-23T00:03:42.488Z,8.27
2022-09-23T00:04:04.213Z,9.00
2022-09-23T00:04:26.018Z,9.55
2022-09-23T00:04:48.024Z,9.95
2022-09-23T00:05:10.502Z,8.15
2022-09-23T00:05:33.395Z,10.63
2022-09-23T00:06:22.672Z,10.73
2022-09-23T00:06:44.349Z,8.65
2022-09-23T00:07:06.193Z,11.20
2022-09-23T00:07:28.146Z,8.65
2022-09-23T00:07:49.885Z,9.95
2022-09-23T00:08:15.028Z,9.18
2022-09-23T00:08:37.784Z,9.20
2022-09-23T00:08:59.758Z,9.05
2022-09-23T00:09:21.704Z,9.40
2022-09-23T00:09:43.468Z,9.55
2022-09-23T00:10:07.397Z,10.75
2022-09-23T00:10:32.734Z,9.10
2022-09-23T00:10:55.744Z,8.48
2022-09-23T00:11:22.357Z,7.82
2022-09-23T00:11:44.077Z,9.07
2022-09-23T00:12:09.069Z,9.85
2022-09-23T00:12:31.273Z,8.80
2022-09-23T00:12:54.450Z,7.68
2022-09-23T00:13:16.329Z,8.90
2022-09-23T00:13:39.596Z,8.37
2022-09-23T00:14:02.372Z,7.70
2022-09-23T00:14:25.166Z,8.32
2022-09-23T00:14:46.902Z,9.45
2022-09-23T00:15:11.157Z,8.18
2022-09-23T00:15:38.589Z,9.00
2022-09-23T00:16:08.633Z,9.07
2022-09-23T00:16:34.438Z,8.90
2022-09-23T00:16:56.611Z,8.57
2022-09-23T00:17:18.493Z,9.13
2022-09-23T00:17:40.969Z,7.75
2022-09-23T00:18:02.758Z,8.73
2022-09-23T00:18:24.539Z,11.60
2022-09-23T00:18:46.370Z,9.48
2022-09-23T00:19:08.729Z,8.43
2022-09-23T00:19:31.891Z,8.65
2022-09-23T00:19:55.339Z,8.57
2022-09-23T00:20:17.849Z,10.90
2022-09-23T00:20:40.462Z,9.10
2022-09-23T00:21:06.765Z,9.35
2022-09-23T00:21:29.922Z,8.80
2022-09-23T00:21:51.848Z,8.60
2022-09-23T00:22:13.821Z,9.63
2022-09-23T00:22:36.557Z,8.05
2022-09-23T00:22:58.224Z,9.43
2022-09-23T00:23:19.968Z,8.80
2022-09-23T00:23:43.789Z,8.88
2022-09-23T00:24:05.777Z,9.88
2022-09-23T00:24:32.219Z,9.30
2022-09-23T00:24:54.140Z,9.02
2022-09-23T00:25:15.889Z,8.70
2022-09-23T00:25:37.581Z,11.13
2022-09-23T00:26:01.945Z,8.95
2022-09-23T00:26:23.785Z,8.68
2022-09-23T00:26:45.849Z,10.27
2022-09-23T00:27:07.561Z,8.40
2022-09-23T00:27:30.366Z,8.10
2022-09-23T00:27:52.124Z,8.27
2022-09-23T00:28:13.816Z,8.02
2022-09-23T00:28:35.951Z,10.02
2022-09-23T00:28:57.684Z,10.70
2022-09-23T00:29:19.700Z,10.05
2022-09-23T00:29:41.460Z,10.30
2022-09-23T00:30:06.826Z,9.05
2022-09-23T00:30:29.343Z,10.25
2022-09-23T00:30:51.351Z,9.60
2022-09-23T00:31:21.670Z,9.38
2022-09-23T00:31:43.661Z,9.70
2022-09-23T00:32:05.650Z,9.80
2022-09-23T00:32:28.015Z,9.50
2022-09-23T00:32:49.772Z,9.57
2022-09-23T00:33:11.510Z,9.77
2022-09-23T00:33:33.465Z,8.95
2022-09-23T00:33:57.615Z,11.13
2022-09-23T00:34:19.861Z,10.80
2022-09-23T00:34:44.363Z,10.02
2022-09-23T00:35:06.818Z,9.52
2022-09-23T00:35:28.525Z,11.32
2022-09-23T00:35:50.225Z,10.82
2022-09-23T00:36:18.686Z,9.02
2022-09-23T00:36:40.443Z,10.00
2022-09-23T00:37:02.365Z,9.13
2022-09-23T00:37:24.177Z,9.23
2022-09-23T00:37:47.970Z,8.60
2022-09-23T00:38:09.934Z,9.88
2022-09-23T00:38:31.794Z,11.02
2022-09-23T00:38:54.402Z,10.00
2022-09-23T00:39:16.159Z,9.98
2022-09-23T00:39:37.868Z,9.20
2022-09-23T00:40:00.843Z,10.95
2022-09-23T00:40:22.656Z,10.77
2022-09-23T00:40:46.164Z,11.25
2022-09-23T00:41:08.365Z,10.13
2022-09-23T00:41:30.564Z,10.45
2022-09-23T00:41:52.782Z,11.23
2022-09-23T00:42:18.958Z,10.32
2022-09-23T00:42:52.266Z,10.35
2022-09-23T00:43:15.165Z,11.32
2022-09-23T00:43:54.652Z,10.23
2022-09-23T00:44:40.673Z,9.38
2022-09-23T00:45:02.389Z,8.23
2022-09-23T00:45:24.482Z,9.70
2022-09-23T00:45:50.965Z,11.80
2022-09-23T00:46:29.377Z,10.35
2022-09-23T00:46:52.098Z,8.52
2022-09-23T00:47:19.582Z,9.70
2022-09-23T00:47:49.924Z,9.10
2022-09-23T00:48:17.058Z,10.27
2022-09-23T00:48:42.440Z,9.77
2022-09-23T00:49:23.497Z,9.93
2022-09-23T00:49:47.840Z,8.93
2022-09-23T00:50:18.853Z,10.18
2022-09-23T00:50:43.806Z,10.18
2022-09-23T00:51:08.906Z,12.13
2022-09-23T00:51:36.908Z,11.02
2022-09-23T00:52:09.876Z,10.23
2022-09-23T00:52:32.272Z,9.63
2022-09-23T00:52:57.233Z,8.13
2022-09-23T00:53:22.546Z,8.98
2022-09-23T00:53:46.957Z,9.60
2022-09-23T00:54:09.441Z,10.77
2022-09-23T00:54:31.425Z,10.65
2022-09-23T00:54:56.135Z,10.90
2022-09-23T00:55:25.286Z,10.82
2022-09-23T00:55:51.492Z,8.85
2022-09-23T00:56:15.719Z,8.68
2022-09-23T00:56:39.321Z,9.65
2022-09-23T00:57:03.846Z,10.52
2022-09-23T00:57:27.591Z,8.13
2022-09-23T00:57:49.666Z,9.13
2022-09-23T00:58:14.905Z,11.18
2022-09-23T00:58:39.500Z,10.20
2022-09-23T00:59:02.607Z,10.07
2022-09-23T00:59:26.330Z,9.80
2022-09-23T00:59:50.507Z,8.63
2022-09-23T01:00:13.402Z,8.30
2022-09-23T01:00:35.698Z,10.13
2022-09-23T01:01:00.854Z,11.10
2022-09-23T01:01:24.822Z,12.40
2022-09-23T01:01:49.629Z,10.27
2022-09-23T01:02:14.257Z,9.52
2022-09-23T01:02:37.682Z,9.35
2022-09-23T01:03:00.933Z,10.07
2022-09-23T01:03:23.149Z,12.40
2022-09-23T01:03:46.413Z,11.20
2022-09-23T01:04:08.659Z,10.57
2022-09-23T01:04:30.630Z,9.77
2022-09-23T01:04:52.562Z,10.38
2022-09-23T01:05:15.081Z,12.68
2022-09-23T01:05:37.081Z,10.90
2022-09-23T01:05:59.741Z,10.30
2022-09-23T01:06:21.550Z,10.65
2022-09-23T01:06:43.270Z,9.50
2022-09-23T01:07:04.992Z,10.02
2022-09-23T01:07:27.204Z,9.77
2022-09-23T01:07:50.798Z,10.30
2022-09-23T01:08:14.382Z,10.18
2022-09-23T01:08:37.446Z,10.40
2022-09-23T01:08:59.441Z,11.07
2022-09-23T01:09:22.721Z,10.98
2022-09-23T01:09:46.995Z,9.95
2022-09-23T01:10:11.074Z,10.50
2022-09-23T01:10:50.151Z,9.88
2022-09-23T01:11:28.873Z,11.20
2022-09-23T01:12:24.510Z,10.52
2022-09-23T01:13:25.170Z,10.57
2022-09-23T01:14:16.669Z,11.85
2022-09-23T01:14:52.968Z,10.88
2022-09-23T01:15:49.836Z,13.10
2022-09-23T01:16:18.902Z,10.15
2022-09-23T01:16:46.651Z,11.00
2022-09-23T01:17:21.002Z,10.45
2022-09-23T01:17:51.200Z,11.18
2022-09-23T01:18:28.835Z,10.77
2022-09-23T01:19:05.498Z,11.05
2022-09-23T01:19:48.606Z,10.70
2022-09-23T01:20:31.329Z,12.98
2022-09-23T01:20:55.845Z,13.45
2022-09-23T01:21:27.490Z,11.80
2022-09-23T01:21:53.604Z,11.45
2022-09-23T01:23:10.194Z,13.93
2022-09-23T01:24:10.589Z,10.60
2022-09-23T01:24:45.124Z,12.30
2022-09-23T01:26:06.264Z,11.98
2022-09-23T01:26:45.916Z,10.85
2022-09-23T01:27:35.088Z,11.65
2022-09-23T01:28:30.317Z,10.02
2022-09-23T01:29:02.684Z,10.07
2022-09-23T01:30:01.472Z,10.73
2022-09-23T01:30:46.223Z,10.68
2022-09-23T01:31:23.240Z,11.88
2022-09-23T01:32:03.075Z,13.80
2022-09-23T01:32:32.860Z,11.93
2022-09-23T01:33:15.852Z,11.85
2022-09-23T01:33:49.387Z,9.68
2022-09-23T01:34:24.529Z,10.90
2022-09-23T01:34:57.437Z,11.18
2022-09-23T01:35:43.073Z,11.00
2022-09-23T01:36:18.938Z,12.25
2022-09-23T01:36:56.241Z,11.07
2022-09-23T01:37:46.027Z,10.93
2022-09-23T01:38:32.179Z,11.45
2022-09-23T01:39:08.818Z,12.02
2022-09-23T01:39:36.363Z,10.68
2022-09-23T01:40:14.119Z,11.35
2022-09-23T01:40:45.316Z,11.15
2022-09-23T01:41:45.881Z,11.73
2022-09-23T01:42:13.457Z,11.88
2022-09-23T01:42:45.246Z,12.18
2022-09-23T01:43:13.887Z,13.93
2022-09-23T01:43:42.854Z,12.38
2022-09-23T01:44:11.256Z,11.48
2022-09-23T01:44:51.451Z,12.23
2022-09-23T01:45:35.611Z,11.57
2022-09-23T01:46:00.525Z,10.77
2022-09-23T01:46:33.772Z,11.68
2022-09-23T01:46:57.947Z,10.48
2022-09-23T01:47:22.507Z,11.45
2022-09-23T01:47:58.363Z,12.35
2022-09-23T01:48:41.460Z,11.38
2022-09-23T01:49:13.569Z,11.57
2022-09-23T01:49:45.242Z,11.05
2022-09-23T01:50:33.089Z,13.48
2022-09-23T01:51:07.250Z,12.25
2022-09-23T01:51:39.328Z,12.93
2022-09-23T01:52:16.183Z,12.45
2022-09-23T01:52:47.350Z,12.95
2022-09-23T01:53:23.618Z,11.43
2022-09-23T01:54:18.997Z,11.63
2022-09-23T01:54:50.711Z,13.07
2022-09-23T01:55:34.345Z,12.88
2022-09-23T01:56:00.527Z,12.15
2022-09-23T01:56:31.071Z,12.02
2022-09-23T01:56:59.896Z,13.95
2022-09-23T01:57:43.868Z,11.80
2022-09-23T01:58:18.714Z,12.18
2022-09-23T01:58:46.595Z,11.80
2022-09-23T01:59:22.928Z,10.63
2022-09-23T01:59:55.120Z,14.95
2022-09-23T02:00:19.581Z,11.23
2022-09-23T02:00:48.034Z,13.43
2022-09-23T02:01:17.951Z,11.07
2022-09-23T02:01:50.984Z,11.45
2022-09-23T02:02:22.126Z,12.63
2022-09-23T02:02:49.557Z,12.27
2022-09-23T02:03:17.015Z,10.90
2022-09-23T02:03:51.159Z,12.75
2022-09-23T02:04:19.224Z,12.32
2022-09-23T02:05:12.611Z,11.85
2022-09-23T02:05:42.665Z,12.18
2022-09-23T02:06:20.212Z,11.55
2022-09-23T02:07:10.886Z,12.85
2022-09-23T02:07:41.883Z,12.27
2022-09-23T02:08:10.584Z,12.07
2022-09-23T02:08:42.664Z,12.98
2022-09-23T02:09:15.692Z,12.65
2022-09-23T02:09:43.302Z,12.82
2022-09-23T02:10:15.523Z,12.95
2022-09-23T02:10:44.190Z,12.93
2022-09-23T02:11:15.327Z,12.88
2022-09-23T02:11:42.236Z,13.15
2022-09-23T02:12:08.814Z,13.13
2022-09-23T02:12:34.009Z,13.48
2022-09-23T02:13:02.522Z,12.48
2022-09-23T02:13:34.187Z,15.30
2022-09-23T02:14:02.013Z,11.65
2022-09-23T02:14:29.346Z,12.55
2022-09-23T02:14:58.676Z,13.40
2022-09-23T02:15:25.362Z,12.27
2022-09-23T02:15:54.335Z,12.32
2022-09-23T02:16:33.876Z,13.80
2022-09-23T02:17:00.712Z,11.10
2022-09-23T02:17:49.937Z,13.05
2022-09-23T02:18:24.271Z,14.00
2022-09-23T02:19:01.313Z,12.75
2022-09-23T02:19:29.334Z,14.90
2022-09-23T02:19:56.741Z,12.73
2022-09-23T02:20:32.519Z,13.30
2022-09-23T02:21:00.366Z,12.48
2022-09-23T02:21:27.809Z,15.00
2022-09-23T02:21:57.585Z,13.52
2022-09-23T02:22:28.090Z,13.63
2022-09-23T02:22:49.774Z,13.75
2022-09-23T02:23:21.671Z,12.52
2022-09-23T02:23:52.121Z,11.25
2022-09-23T02:24:28.940Z,14.77
2022-09-23T02:24:50.788Z,13.20
2022-09-23T02:25:12.562Z,13.52
2022-09-23T02:25:57.285Z,14.38
2022-09-23T02:26:32.746Z,14.32
2022-09-23T02:27:21.288Z,11.70
2022-09-23T02:28:10.212Z,11.77
2022-09-23T02:28:41.186Z,13.88
2022-09-23T02:29:13.007Z,11.95
2022-09-23T02:29:50.109Z,11.60
2022-09-23T02:30:27.142Z,12.40
2022-09-23T02:30:56.690Z,11.77
2022-09-23T02:31:42.388Z,11.77
2022-09-23T02:32:45.045Z,11.13
2022-09-23T02:33:35.298Z,12.73
2022-09-23T02:34:09.640Z,11.65
2022-09-23T02:34:36.678Z,11.98
2022-09-23T02:35:18.965Z,13.43
2022-09-23T02:35:44.287Z,14.13
2022-09-23T02:36:19.313Z,11.95
2022-09-23T02:36:46.710Z,12.88
2022-09-23T02:37:42.724Z,11.55
2022-09-23T02:38:10.406Z,14.10
2022-09-23T02:39:01.841Z,13.23
2022-09-23T02:39:31.499Z,12.20
2022-09-23T02:39:58.065Z,13.20
2022-09-23T02:40:23.607Z,11.45
2022-09-23T02:40:58.699Z,11.60
2022-09-23T02:41:36.762Z,12.23
2022-09-23T02:42:06.980Z,11.05
2022-09-23T02:42:53.469Z,13.48
2022-09-23T02:43:33.879Z,13.50
2022-09-23T02:44:04.562Z,12.32
2022-09-23T02:44:28.563Z,10.75
2022-09-23T02:44:50.582Z,12.40
2022-09-23T02:45:12.391Z,12.60
2022-09-23T02:45:34.398Z,12.93
2022-09-23T02:45:56.413Z,12.18
2022-09-23T02:46:19.876Z,11.65
2022-09-23T02:46:43.790Z,13.80
2022-09-23T02:47:05.884Z,13.30
2022-09-23T02:47:32.672Z,11.60
2022-09-23T02:48:02.451Z,11.23
2022-09-23T02:48:30.561Z,11.98
2022-09-23T02:48:56.821Z,11.07
2022-09-23T02:49:30.265Z,11.05
2022-09-23T02:49:53.195Z,13.70
2022-09-23T02:50:15.217Z,12.35
2022-09-23T02:50:37.738Z,12.63
2022-09-23T02:51:02.348Z,15.07
2022-09-23T02:51:25.754Z,12.77
2022-09-23T02:51:47.692Z,12.35
2022-09-23T02:52:09.688Z,12.68
2022-09-23T02:52:32.325Z,12.27
2022-09-23T02:52:54.797Z,12.60
2022-09-23T02:53:17.228Z,12.13
2022-09-23T02:53:39.593Z,12.57
2022-09-23T02:54:03.476Z,12.95
2022-09-23T02:54:28.211Z,12.73
2022-09-23T02:54:49.980Z,12.75
2022-09-23T02:55:16.661Z,10.95
2022-09-23T02:55:39.262Z,14.75
2022-09-23T02:56:03.622Z,12.35
2022-09-23T02:56:25.535Z,14.10
2022-09-23T02:56:49.776Z,12.00
2022-09-23T02:57:12.927Z,12.50
2022-09-23T02:57:35.606Z,12.48
2022-09-23T02:58:01.585Z,12.30
2022-09-23T02:58:24.547Z,12.50
2022-09-23T02:58:48.441Z,11.32
2022-09-23T02:59:11.762Z,12.32
2022-09-23T02:59:35.773Z,11.88
2022-09-23T02:59:58.451Z,13.30
2022-09-23T03:00:20.794Z,12.25
2022-09-23T03:01:05.051Z,12.40
2022-09-23T03:01:34.685Z,13.55
2022-09-23T03:02:26.550Z,13.00
2022-09-23T03:03:15.938Z,13.20
2022-09-23T03:03:53.787Z,10.60
2022-09-23T03:04:21.536Z,11.77
2022-09-23T03:05:17.461Z,12.53
2022-09-23T03:05:47.106Z,12.35
2022-09-23T03:06:28.971Z,13.02
2022-09-23T03:07:02.506Z,13.60
2022-09-23T03:08:15.096Z,13.07
2022-09-23T03:08:53.764Z,13.88
2022-09-23T03:09:21.714Z,12.73
2022-09-23T03:09:54.746Z,12.00
2022-09-23T03:10:24.652Z,13.05
2022-09-23T03:11:05.342Z,15.68
2022-09-23T03:11:27.347Z,13.73
2022-09-23T03:11:57.085Z,14.90
2022-09-23T03:12:39.781Z,12.52
2022-09-23T03:13:19.632Z,13.25
2022-09-23T03:14:21.972Z,12.32
2022-09-23T03:14:55.987Z,13.50
2022-09-23T03:15:42.953Z,13.80
2022-09-23T03:16:22.010Z,13.93
2022-09-23T03:17:03.439Z,13.00
2022-09-23T03:17:52.746Z,12.23
2022-09-23T03:18:21.620Z,13.15
2022-09-23T03:18:47.038Z,11.80
2022-09-23T03:19:34.047Z,13.77
2022-09-23T03:20:02.463Z,14.05
2022-09-23T03:20:34.255Z,13.27
2022-09-23T03:21:03.153Z,15.50
2022-09-23T03:21:45.188Z,14.13
2022-09-23T03:22:15.230Z,13.55
2022-09-23T03:22:52.292Z,13.23
2022-09-23T03:23:15.823Z,13.40
2022-09-23T03:23:41.007Z,12.35
2022-09-23T03:24:07.331Z,11.38
2022-09-23T03:24:34.642Z,14.70
2022-09-23T03:25:01.937Z,16.20
2022-09-23T03:25:25.881Z,12.38
2022-09-23T03:25:49.660Z,14.30
2022-09-23T03:26:17.483Z,14.40
2022-09-23T03:26:42.392Z,13.25
2022-09-23T03:27:13.844Z,11.68
2022-09-23T03:27:37.718Z,14.10
2022-09-23T03:28:01.703Z,14.13
2022-09-23T03:28:25.410Z,11.68
2022-09-23T03:28:47.719Z,13.02
2022-09-23T03:29:11.868Z,12.20
2022-09-23T03:29:37.295Z,13.25
2022-09-23T03:30:00.472Z,14.13
2022-09-23T03:30:22.362Z,12.80
2022-09-23T03:30:44.985Z,12.40
2022-09-23T03:31:07.824Z,14.50
2022-09-23T03:31:30.833Z,14.63
2022-09-23T03:31:53.997Z,11.23
2022-09-23T03:32:19.104Z,12.18
2022-09-23T03:32:45.664Z,12.50
2022-09-23T03:33:10.219Z,12.70
2022-09-23T03:33:33.030Z,12.45
2022-09-23T03:33:58.998Z,14.82
2022-09-23T03:34:25.304Z,12.63
2022-09-23T03:34:50.994Z,12.80
2022-09-23T03:35:14.438Z,12.50
2022-09-23T03:36:03.584Z,12.18
2022-09-23T03:36:51.454Z,13.93
2022-09-23T03:37:18.889Z,15.02
2022-09-23T03:38:03.854Z,13.45
2022-09-23T03:38:31.496Z,12.77
2022-09-23T03:39:04.131Z,13.18
2022-09-23T03:39:35.245Z,13.80
2022-09-23T03:40:20.807Z,13.00
2022-09-23T03:40:47.891Z,13.25
2022-09-23T03:41:13.585Z,13.70
2022-09-23T03:41:45.101Z,13.32
2022-09-23T03:42:33.306Z,14.70
2022-09-23T03:42:57.446Z,13.65
2022-09-23T03:43:19.373Z,14.60
2022-09-23T03:43:41.161Z,13.10
2022-09-23T03:44:03.872Z,13.00
2022-09-23T03:44:29.161Z,14.25
2022-09-23T03:44:57.204Z,14.05
2022-09-23T03:45:24.894Z,12.73
2022-09-23T03:45:47.464Z,14.95
2022-09-23T03:46:09.308Z,14.38
2022-09-23T03:46:35.956Z,12.70
2022-09-23T03:47:02.587Z,12.55
2022-09-23T03:47:26.883Z,12.70
2022-09-23T03:47:48.592Z,12.32
2022-09-23T03:48:10.355Z,13.73
2022-09-23T03:48:32.125Z,15.70
2022-09-23T03:49:27.218Z,14.77
2022-09-23T03:49:50.680Z,13.68
2022-09-23T03:50:13.521Z,13.70
2022-09-23T03:50:35.736Z,12.55
2022-09-23T03:50:57.408Z,14.25
2022-09-23T03:51:24.197Z,15.20
2022-09-23T03:51:46.076Z,13.15
2022-09-23T03:52:07.816Z,14.35
2022-09-23T03:52:30.089Z,13.60
2022-09-23T03:52:51.871Z,14.48
2022-09-23T03:53:13.811Z,13.77
2022-09-23T03:53:35.596Z,13.10
2022-09-23T03:53:57.711Z,13.50
2022-09-23T03:54:20.385Z,13.00
2022-09-23T03:54:42.647Z,12.20
2022-09-23T03:55:05.014Z,12.65
2022-09-23T03:55:27.058Z,14.40
2022-09-23T03:55:48.761Z,12.95
2022-09-23T03:56:11.658Z,15.25
2022-09-23T03:56:33.557Z,16.13
2022-09-23T03:56:58.480Z,18.90
2022-09-23T03:57:23.974Z,17.17
2022-09-23T03:57:45.908Z,14.40
2022-09-23T03:58:08.130Z,13.52
2022-09-23T03:58:29.910Z,13.63
2022-09-23T03:58:51.613Z,13.82
2022-09-23T03:59:15.142Z,13.20
2022-09-23T03:59:37.168Z,12.80
2022-09-23T03:59:59.191Z,12.70
2022-09-23T04:00:20.964Z,13.65
2022-09-23T04:00:43.252Z,14.30
2022-09-23T04:01:05.996Z,13.10
2022-09-23T04:01:27.838Z,14.57
2022-09-23T04:01:50.217Z,13.60
2022-09-23T04:02:12.121Z,14.85
2022-09-23T04:02:34.464Z,13.73
2022-09-23T04:02:57.426Z,13.32
2022-09-23T04:03:19.156Z,13.95
2022-09-23T04:03:41.561Z,14.27
2022-09-23T04:04:03.345Z,12.77
2022-09-23T04:04:28.760Z,12.68
2022-09-23T04:04:50.657Z,13.50
2022-09-23T04:05:13.340Z,12.57
2022-09-23T04:05:36.100Z,16.50
2022-09-23T04:05:57.885Z,14.23
2022-09-23T04:06:20.294Z,13.52
2022-09-23T04:06:42.015Z,13.43
2022-09-23T04:07:03.891Z,13.23
2022-09-23T04:07:25.638Z,15.75
2022-09-23T04:07:48.503Z,14.45
2022-09-23T04:08:10.241Z,13.85
2022-09-23T04:08:31.980Z,15.60
2022-09-23T04:08:54.059Z,14.00
2022-09-23T04:09:15.796Z,12.90
2022-09-23T04:09:37.693Z,15.43
2022-09-23T04:09:59.468Z,15.57
2022-09-23T04:10:21.242Z,13.27
2022-09-23T04:10:42.972Z,12.60
2022-09-23T04:11:05.184Z,12.45
2022-09-23T04:11:27.378Z,12.35
2022-09-23T04:11:53.283Z,13.68
2022-09-23T04:12:16.902Z,14.52
2022-09-23T04:12:38.783Z,13.40
2022-09-23T04:13:00.548Z,13.45
2022-09-23T04:13:22.258Z,14.27
2022-09-23T04:13:44.038Z,14.65
2022-09-23T04:14:05.904Z,15.60
2022-09-23T04:14:27.791Z,15.65
2022-09-23T04:14:49.487Z,14.90
2022-09-23T04:15:11.752Z,15.13
2022-09-23T04:15:33.456Z,13.27
2022-09-23T04:15:55.561Z,13.88
2022-09-23T04:16:17.349Z,15.25
2022-09-23T04:16:39.351Z,16.75
2022-09-23T04:17:01.350Z,13.77
2022-09-23T04:17:23.268Z,16.20
2022-09-23T04:17:44.984Z,15.05
2022-09-23T04:18:06.684Z,14.05
2022-09-23T04:18:28.484Z,14.55
2022-09-23T04:18:51.704Z,14.45
2022-09-23T04:19:14.489Z,17.02
2022-09-23T04:19:36.436Z,16.40
2022-09-23T04:19:58.319Z,14.85
2022-09-23T04:20:20.614Z,14.95
2022-09-23T04:20:42.333Z,13.98
2022-09-23T04:21:04.185Z,15.50
2022-09-23T04:21:26.766Z,15.50
2022-09-23T04:21:49.316Z,14.38
2022-09-23T04:22:11.513Z,15.30
2022-09-23T04:22:34.278Z,13.90
2022-09-23T04:22:56.604Z,14.77
2022-09-23T04:23:18.503Z,13.65
2022-09-23T04:23:40.240Z,14.63
2022-09-23T04:24:02.294Z,15.07
2022-09-23T04:24:24.562Z,14.75
2022-09-23T04:24:46.232Z,15.18
2022-09-23T04:25:08.455Z,16.17
2022-09-23T04:25:30.144Z,15.13
2022-09-23T04:25:52.042Z,16.20
2022-09-23T04:26:14.247Z,14.90
2022-09-23T04:26:38.173Z,15.75
2022-09-23T04:27:00.130Z,16.33
2022-09-23T04:27:21.926Z,17.52
2022-09-23T04:27:43.729Z,18.77
2022-09-23T04:28:05.424Z,15.57
2022-09-23T04:28:28.086Z,16.20
2022-09-23T04:28:49.982Z,17.13
2022-09-23T04:29:12.322Z,15.35
2022-09-23T04:29:34.056Z,14.98
2022-09-23T04:29:55.737Z,16.13
2022-09-23T04:30:18.756Z,16.88
2022-09-23T04:30:44.248Z,18.08
2022-09-23T04:31:07.665Z,19.13
2022-09-23T04:31:29.466Z,17.77
2022-09-23T04:31:51.938Z,15.50
2022-09-23T04:32:13.739Z,14.90
2022-09-23T04:32:35.753Z,17.38
2022-09-23T04:32:57.449Z,16.75
2022-09-23T04:33:19.261Z,14.32
2022-09-23T04:33:41.034Z,14.90
2022-09-23T04:34:02.910Z,14.52
2022-09-23T04:34:24.705Z,15.55
2022-09-23T04:34:46.401Z,16.60
2022-09-23T04:35:08.457Z,15.82
2022-09-23T04:35:30.155Z,15.75
2022-09-23T04:35:52.535Z,16.05
2022-09-23T04:36:14.332Z,16.17
2022-09-23T04:36:36.095Z,15.73
2022-09-23T04:36:57.828Z,17.35
2022-09-23T04:37:19.526Z,15.23
2022-09-23T04:37:41.268Z,14.85
2022-09-23T04:38:03.042Z,15.75
2022-09-23T04:38:25.087Z,15.63
2022-09-23T04:38:48.618Z,16.77
2022-09-23T04:39:10.938Z,17.08
2022-09-23T04:39:32.779Z,16.77
2022-09-23T04:39:54.616Z,15.45
2022-09-23T04:40:16.479Z,17.63
2022-09-23T04:40:38.373Z,16.25
2022-09-23T04:41:00.580Z,16.33
2022-09-23T04:41:22.467Z,17.08
2022-09-23T04:41:45.867Z,14.93
2022-09-23T04:42:07.723Z,16.33
2022-09-23T04:42:30.646Z,15.60
2022-09-23T04:42:52.342Z,16.15
2022-09-23T04:43:15.926Z,16.23
2022-09-23T04:43:38.658Z,15.43
2022-09-23T04:44:00.640Z,15.35
2022-09-23T04:44:22.336Z,15.85
2022-09-23T04:44:45.073Z,15.57
2022-09-23T04:45:07.408Z,15.93
2022-09-23T04:45:30.138Z,15.20
2022-09-23T04:46:02.507Z,15.75
2022-09-23T04:46:24.562Z,15.13
2022-09-23T04:46:49.655Z,16.58
2022-09-23T04:47:11.651Z,16.52
2022-09-23T04:47:33.351Z,17.02
2022-09-23T04:47:56.075Z,15.95
2022-09-23T04:48:17.859Z,17.55
2022-09-23T04:48:41.858Z,17.42
2022-09-23T04:49:04.280Z,16.52
2022-09-23T04:49:26.653Z,16.25
2022-09-23T04:49:48.617Z,16.70
2022-09-23T04:50:10.284Z,17.85
2022-09-23T04:50:33.926Z,16.85
2022-09-23T04:51:05.538Z,16.70
2022-09-23T04:51:27.404Z,18.10
2022-09-23T04:51:49.091Z,17.48
2022-09-23T04:52:10.780Z,17.63
2022-09-23T04:52:32.477Z,17.95
2022-09-23T04:52:55.365Z,15.25
2022-09-23T04:53:17.093Z,15.77
2022-09-23T04:53:41.091Z,15.23
2022-09-23T04:54:02.890Z,14.93
2022-09-23T04:54:24.634Z,16.85
2022-09-23T04:54:46.578Z,15.30
2022-09-23T04:55:11.195Z,15.82
2022-09-23T04:55:33.203Z,17.25
2022-09-23T04:55:55.669Z,15.38
2022-09-23T04:56:22.832Z,15.43
2022-09-23T04:56:44.500Z,14.77
2022-09-23T04:57:06.240Z,18.58
2022-09-23T04:57:28.285Z,17.70
2022-09-23T04:57:50.037Z,17.88
2022-09-23T04:58:11.749Z,16.67
2022-09-23T04:58:34.493Z,16.85
2022-09-23T04:58:59.002Z,17.58
2022-09-23T04:59:20.720Z,16.45
2022-09-23T04:59:45.244Z,15.90
2022-09-23T05:00:07.695Z,17.73
2022-09-23T05:00:29.622Z,16.48
2022-09-23T05:00:51.738Z,15.90
2022-09-23T05:01:34.544Z,19.45
2022-09-23T05:01:56.671Z,17.02
2022-09-23T05:02:18.489Z,16.50
2022-09-23T05:02:47.951Z,18.17
2022-09-23T05:03:09.628Z,15.88
2022-09-23T05:03:35.649Z,16.23
2022-09-23T05:04:05.878Z,14.68
2022-09-23T05:04:27.700Z,17.13
2022-09-23T05:04:49.708Z,17.00
2022-09-23T05:05:12.031Z,16.63
2022-09-23T05:05:34.247Z,16.67
2022-09-23T05:06:00.102Z,15.68
2022-09-23T05:06:22.611Z,16.08
2022-09-23T05:06:45.278Z,16.10
2022-09-23T05:07:07.489Z,16.45
2022-09-23T05:07:29.265Z,15.90
2022-09-23T05:07:51.345Z,15.02
2022-09-23T05:08:13.141Z,15.93
2022-09-23T05:08:35.741Z,13.68
2022-09-23T05:08:59.125Z,15.18
2022-09-23T05:09:20.879Z,14.95
2022-09-23T05:09:42.582Z,15.60
2022-09-23T05:10:04.652Z,16.83
2022-09-23T05:10:26.476Z,16.02
2022-09-23T05:10:49.465Z,13.90
2022-09-23T05:11:11.192Z,16.58
2022-09-23T05:11:33.365Z,14.65
2022-09-23T05:11:55.299Z,15.52
2022-09-23T05:12:17.664Z,15.95
2022-09-23T05:12:39.577Z,16.75
2022-09-23T05:13:01.515Z,16.20
2022-09-23T05:13:23.209Z,15.70
2022-09-23T05:13:47.437Z,16.88
2022-09-23T05:14:09.847Z,16.67
2022-09-23T05:14:31.597Z,13.93
2022-09-23T05:14:53.482Z,14.60
2022-09-23T05:15:16.143Z,17.88
2022-09-23T05:15:38.118Z,18.92
2022-09-23T05:16:01.184Z,14.85
2022-09-23T05:16:24.052Z,15.40
2022-09-23T05:16:46.052Z,16.05
2022-09-23T05:17:07.761Z,15.25
2022-09-23T05:17:31.248Z,13.85
2022-09-23T05:17:52.988Z,13.30
2022-09-23T05:18:17.901Z,13.55
2022-09-23T05:18:44.106Z,13.82
2022-09-23T05:19:06.090Z,14.55
2022-09-23T05:19:28.020Z,14.80
2022-09-23T05:19:49.749Z,13.73
2022-09-23T05:20:12.693Z,15.27
2022-09-23T05:20:34.426Z,15.25
2022-09-23T05:20:56.338Z,15.52
2022-09-23T05:21:20.697Z,15.73
2022-09-23T05:21:42.431Z,14.82
2022-09-23T05:22:05.286Z,14.77
2022-09-23T05:22:29.174Z,14.38
2022-09-23T05:22:51.173Z,14.68
2022-09-23T05:23:12.881Z,14.98
2022-09-23T05:23:34.850Z,15.15
2022-09-23T05:23:59.059Z,14.63
2022-09-23T05:24:21.645Z,13.55
2022-09-23T05:24:43.408Z,13.93
2022-09-23T05:25:05.523Z,14.48
2022-09-23T05:25:27.252Z,14.90
2022-09-23T05:25:49.434Z,14.40
2022-09-23T05:26:12.681Z,13.70
2022-09-23T05:26:35.182Z,14.65
2022-09-23T05:26:56.918Z,14.65
2022-09-23T05:27:18.992Z,13.77
2022-09-23T05:27:40.717Z,13.13
2022-09-23T05:28:02.472Z,13.13
2022-09-23T05:28:24.190Z,13.13
2022-09-23T05:28:45.997Z,15.05
2022-09-23T05:29:08.035Z,15.38
2022-09-23T05:29:30.034Z,14.40
2022-09-23T05:29:53.319Z,14.77
2022-09-23T05:30:15.143Z,12.98
2022-09-23T05:30:36.847Z,14.27
2022-09-23T05:31:09.220Z,14.45
2022-09-23T05:31:31.347Z,13.85
2022-09-23T05:31:53.273Z,13.98
2022-09-23T05:32:15.428Z,13.27
2022-09-23T05:32:37.483Z,13.70
2022-09-23T05:32:59.240Z,14.98
2022-09-23T05:33:21.006Z,13.77
2022-09-23T05:33:46.054Z,12.43
2022-09-23T05:34:08.410Z,12.65
2022-09-23T05:34:30.123Z,12.95
2022-09-23T05:34:55.080Z,13.10
2022-09-23T05:35:16.896Z,12.43
2022-09-23T05:35:38.685Z,12.10
2022-09-23T05:36:00.977Z,12.70
2022-09-23T05:36:23.478Z,13.35
2022-09-23T05:36:45.171Z,12.77
2022-09-23T05:37:07.979Z,13.63
2022-09-23T05:37:29.725Z,13.38
2022-09-23T05:37:52.571Z,13.73
2022-09-23T05:38:16.676Z,13.60
2022-09-23T05:38:38.716Z,13.38
2022-09-23T05:39:00.772Z,11.55
2022-09-23T05:39:22.553Z,12.90
2022-09-23T05:39:44.458Z,12.90
2022-09-23T05:40:06.569Z,13.98
2022-09-23T05:40:28.335Z,12.15
2022-09-23T05:40:59.675Z,13.40
2022-09-23T05:41:25.277Z,13.10
2022-09-23T05:41:47.371Z,14.73
2022-09-23T05:42:09.885Z,11.68
2022-09-23T05:42:32.172Z,11.95
2022-09-23T05:42:54.075Z,12.40
2022-09-23T05:43:16.015Z,13.07
2022-09-23T05:43:38.668Z,14.30
2022-09-23T05:44:00.881Z,12.75
2022-09-23T05:44:22.639Z,12.57
2022-09-23T05:44:44.558Z,11.13
2022-09-23T05:45:07.696Z,12.50
2022-09-23T05:45:29.677Z,12.65
2022-09-23T05:45:52.275Z,12.40
2022-09-23T05:46:17.780Z,13.40
2022-09-23T05:46:39.682Z,12.50